Time;durP1;ratioP1;P1;durP2;ratioP2;P2;SDS_P1;SDS_P2;PMS_P1;PMS_P2;Temp;Humidity;BMP_temperature;BMP_pressure;BME280_temperature;BME280_humidity;BME280_pressure;Samples;Min_cycle;Max_cycle;Signal;HPM_P1;HPM_P2
2022/04/24 00:00:19;;;;;;;9.75;8.88;;;12.10;99.90;;;;;;5054488;28;20297;-86
2022/04/24 00:02:49;;;;;;;11.40;10.20;;;12.10;99.90;;;;;;5054659;28;20225;-86
2022/04/24 00:05:18;;;;;;;10.15;9.25;;;12.10;99.90;;;;;;5054486;28;20212;-85
2022/04/24 00:07:47;;;;;;;13.05;10.02;;;12.10;99.90;;;;;;5054091;28;20256;-85
2022/04/24 00:10:15;;;;;;;11.48;10.35;;;12.10;99.90;;;;;;5053259;28;20206;-86
2022/04/24 00:12:43;;;;;;;11.52;10.43;;;12.10;99.90;;;;;;5054355;28;20222;-85
2022/04/24 00:15:12;;;;;;;13.63;10.73;;;12.10;99.90;;;;;;5053469;28;20270;-85
2022/04/24 00:17:40;;;;;;;10.18;9.32;;;12.20;99.90;;;;;;5053647;28;20220;-86
2022/04/24 00:20:11;;;;;;;12.77;9.52;;;12.10;99.90;;;;;;5054204;28;20248;-86
2022/04/24 00:22:39;;;;;;;9.95;9.05;;;12.10;99.90;;;;;;5054237;28;20321;-85
2022/04/24 00:25:08;;;;;;;11.48;10.38;;;12.10;99.90;;;;;;5053962;28;20206;-85
2022/04/24 00:27:37;;;;;;;10.50;9.23;;;12.10;99.90;;;;;;5053858;28;20230;-86
2022/04/24 00:30:06;;;;;;;9.90;8.90;;;12.10;99.90;;;;;;5054269;28;20206;-86
2022/04/24 00:32:34;;;;;;;11.38;10.27;;;12.10;99.90;;;;;;5054208;28;20236;-85
2022/04/24 00:35:02;;;;;;;9.80;9.00;;;12.10;99.90;;;;;;5054072;28;20280;-86
2022/04/24 00:37:32;;;;;;;11.73;10.52;;;12.10;99.90;;;;;;5053627;28;20292;-85
2022/04/24 00:40:01;;;;;;;12.38;11.18;;;12.10;99.90;;;;;;5053750;28;20288;-85
2022/04/24 00:42:30;;;;;;;12.07;10.88;;;12.10;99.90;;;;;;5035696;28;20237;-86
2022/04/24 00:44:58;;;;;;;9.88;9.05;;;12.10;99.90;;;;;;5053968;28;20241;-86
2022/04/24 00:47:27;;;;;;;12.50;10.85;;;12.00;99.90;;;;;;5053278;28;20210;-85
2022/04/24 00:49:55;;;;;;;11.65;10.55;;;12.10;99.90;;;;;;5052934;28;20225;-86
2022/04/24 00:52:24;;;;;;;12.50;11.25;;;12.00;99.90;;;;;;5053129;28;20237;-86
2022/04/24 00:54:54;;;;;;;12.00;10.80;;;12.00;99.90;;;;;;5053419;28;20289;-85
2022/04/24 00:57:22;;;;;;;12.85;10.05;;;12.00;99.90;;;;;;5053161;28;20293;-85
2022/04/24 00:59:50;;;;;;;12.18;11.07;;;12.00;99.90;;;;;;5053165;28;20285;-85
2022/04/24 01:02:19;;;;;;;12.82;11.35;;;12.00;99.90;;;;;;5052979;28;20331;-86
2022/04/24 01:04:47;;;;;;;13.50;12.10;;;12.00;99.90;;;;;;5053278;28;20206;-86
2022/04/24 01:07:16;;;;;;;12.10;10.98;;;12.00;99.90;;;;;;5053504;28;20198;-86
2022/04/24 01:09:44;;;;;;;11.93;10.75;;;12.00;99.90;;;;;;5053049;28;20233;-86
2022/04/24 01:12:14;;;;;;;12.15;10.95;;;12.00;99.90;;;;;;5052823;28;20225;-85
2022/04/24 01:14:42;;;;;;;11.95;10.85;;;12.00;99.90;;;;;;5052558;28;20236;-86
2022/04/24 01:17:11;;;;;;;12.13;10.93;;;11.90;99.90;;;;;;5052256;28;20205;-86
2022/04/24 01:19:39;;;;;;;10.02;9.13;;;11.90;99.90;;;;;;5052750;28;20244;-85
2022/04/24 01:22:10;;;;;;;11.60;10.50;;;11.90;99.90;;;;;;5052328;28;20240;-85
2022/04/24 01:24:38;;;;;;;11.30;10.18;;;11.90;99.90;;;;;;5053245;28;20273;-86
2022/04/24 01:27:07;;;;;;;13.68;12.40;;;11.90;99.90;;;;;;5053073;28;20206;-85
2022/04/24 01:29:35;;;;;;;12.55;11.27;;;11.90;99.90;;;;;;5055066;28;20276;-85
2022/04/24 01:32:05;;;;;;;14.38;12.25;;;11.90;99.90;;;;;;5056276;28;20248;-84
2022/04/24 01:34:33;;;;;;;11.00;10.05;;;11.80;99.90;;;;;;5056100;28;20292;-84
2022/04/24 01:37:02;;;;;;;11.30;10.30;;;11.80;99.90;;;;;;5052984;28;20269;-85
2022/04/24 01:39:31;;;;;;;17.30;9.63;;;11.70;99.90;;;;;;5053211;28;20265;-85
2022/04/24 01:42:00;;;;;;;11.32;9.77;;;11.70;99.90;;;;;;5053921;28;20289;-85
2022/04/24 01:44:28;;;;;;;13.13;11.30;;;11.70;99.90;;;;;;5054484;28;20202;-86
2022/04/24 01:46:56;;;;;;;13.25;10.35;;;11.70;99.90;;;;;;5052364;28;20233;-85
2022/04/24 01:49:25;;;;;;;10.98;9.70;;;11.60;99.90;;;;;;5052000;28;20244;-85
2022/04/24 01:51:53;;;;;;;10.85;9.25;;;11.60;99.90;;;;;;5052495;28;20234;-85
2022/04/24 01:54:21;;;;;;;13.50;9.13;;;11.50;99.90;;;;;;5052423;28;20229;-85
2022/04/24 01:56:51;;;;;;;9.82;8.93;;;11.50;99.90;;;;;;5052794;28;20231;-85
2022/04/24 01:59:20;;;;;;;14.40;9.65;;;11.40;99.90;;;;;;5052676;28;20198;-85
2022/04/24 02:01:48;;;;;;;9.82;8.93;;;11.40;99.90;;;;;;5052575;28;20217;-86
2022/04/24 02:04:18;;;;;;;8.98;8.18;;;11.30;99.90;;;;;;5052731;28;20213;-85
2022/04/24 02:06:47;;;;;;;12.80;9.85;;;11.30;99.90;;;;;;5052559;28;20229;-86
2022/04/24 02:09:15;;;;;;;8.13;7.45;;;11.20;99.90;;;;;;5052648;28;20310;-86
2022/04/24 02:11:44;;;;;;;9.13;8.25;;;11.20;99.90;;;;;;5052651;28;20233;-86
2022/04/24 02:14:21;;;;;;;8.52;7.82;;;11.10;99.90;;;;;;5053136;28;20239;-85
2022/04/24 02:16:49;;;;;;;10.23;8.90;;;11.00;99.90;;;;;;5052769;28;20263;-86
2022/04/24 02:19:17;;;;;;;9.80;8.90;;;11.10;99.90;;;;;;5052179;28;20293;-85
2022/04/24 02:21:46;;;;;;;8.98;8.18;;;11.10;99.90;;;;;;5051983;28;20260;-85
2022/04/24 02:24:14;;;;;;;8.35;7.65;;;11.10;99.90;;;;;;5052716;28;20273;-85
2022/04/24 02:26:43;;;;;;;9.65;7.72;;;11.00;99.90;;;;;;5052452;28;20202;-85
2022/04/24 02:29:11;;;;;;;8.32;7.57;;;11.00;99.90;;;;;;5052110;28;20308;-85
2022/04/24 02:31:41;;;;;;;9.18;8.35;;;10.90;99.90;;;;;;5052461;28;20312;-85
2022/04/24 02:34:09;;;;;;;7.55;6.90;;;10.90;99.90;;;;;;5056243;28;20202;-85
2022/04/24 02:36:38;;;;;;;9.70;8.77;;;10.90;99.90;;;;;;5056259;28;20300;-85
2022/04/24 02:39:06;;;;;;;11.13;9.55;;;10.90;99.90;;;;;;5056408;28;20279;-85
2022/04/24 02:41:34;;;;;;;8.07;7.40;;;10.90;99.90;;;;;;5056596;28;20308;-85
2022/04/24 02:44:02;;;;;;;9.40;8.50;;;10.90;99.90;;;;;;5056400;28;20214;-85
2022/04/24 02:46:31;;;;;;;8.77;7.93;;;11.00;99.90;;;;;;5055966;28;20232;-86
2022/04/24 02:49:01;;;;;;;8.32;7.63;;;11.00;99.90;;;;;;5055816;28;20201;-85
2022/04/24 02:51:29;;;;;;;7.65;7.00;;;11.00;99.90;;;;;;5055641;28;20289;-85
2022/04/24 02:53:57;;;;;;;7.55;6.82;;;10.90;99.90;;;;;;5055904;28;20294;-85
2022/04/24 02:56:25;;;;;;;7.78;7.07;;;11.00;99.90;;;;;;5055563;28;20216;-86
2022/04/24 02:58:54;;;;;;;9.52;8.57;;;11.00;99.90;;;;;;5055900;28;20261;-85
2022/04/24 03:01:22;;;;;;;8.38;7.57;;;11.00;99.90;;;;;;5056285;28;20305;-85
2022/04/24 03:03:51;;;;;;;7.78;7.07;;;11.00;99.90;;;;;;5055666;28;20209;-85
2022/04/24 03:06:21;;;;;;;8.27;7.57;;;11.00;99.90;;;;;;5055706;28;20209;-86
2022/04/24 03:08:49;;;;;;;9.10;7.63;;;11.00;99.90;;;;;;5055701;28;20221;-85
2022/04/24 03:11:17;;;;;;;10.90;8.32;;;11.00;99.90;;;;;;5055135;28;20312;-85
2022/04/24 03:13:46;;;;;;;8.75;7.85;;;10.90;99.90;;;;;;5055546;28;20206;-85
2022/04/24 03:16:14;;;;;;;7.00;6.45;;;10.90;99.90;;;;;;5055844;28;20292;-86
2022/04/24 03:18:43;;;;;;;7.32;6.72;;;10.90;99.90;;;;;;5055176;28;20285;-85
2022/04/24 03:21:11;;;;;;;8.10;7.22;;;10.80;99.90;;;;;;5054905;28;20301;-85
2022/04/24 03:23:41;;;;;;;10.20;9.23;;;10.80;99.90;;;;;;5055421;28;20280;-85
2022/04/24 03:26:15;;;;;;;7.78;7.03;;;10.70;99.90;;;;;;5055525;28;20259;-85
2022/04/24 03:28:44;;;;;;;7.57;6.88;;;10.70;99.90;;;;;;5055555;28;20285;-85
2022/04/24 03:31:13;;;;;;;7.28;6.60;;;10.60;99.90;;;;;;5054933;28;20233;-85
2022/04/24 03:33:41;;;;;;;8.15;7.45;;;10.60;99.90;;;;;;5054864;28;20261;-84
2022/04/24 03:36:10;;;;;;;24.73;7.38;;;10.60;99.90;;;;;;5055324;28;20284;-85
2022/04/24 03:38:39;;;;;;;8.05;7.25;;;10.60;99.90;;;;;;5055101;28;20210;-84
2022/04/24 03:41:08;;;;;;;8.00;6.90;;;10.60;99.90;;;;;;5055152;28;20305;-85
2022/04/24 03:43:36;;;;;;;8.88;8.07;;;10.60;99.90;;;;;;5054873;28;20245;-85
2022/04/24 03:46:05;;;;;;;7.13;6.45;;;10.60;99.90;;;;;;5055102;28;20274;-85
2022/04/24 03:48:34;;;;;;;7.20;6.53;;;10.60;99.90;;;;;;5054841;28;20288;-85
2022/04/24 03:51:02;;;;;;;7.43;6.82;;;10.50;99.90;;;;;;5054492;28;20221;-85
2022/04/24 03:53:31;;;;;;;7.50;6.90;;;10.50;99.90;;;;;;5054943;28;20266;-85
2022/04/24 03:56:01;;;;;;;8.52;7.63;;;10.40;99.90;;;;;;5055295;28;20288;-85
2022/04/24 03:58:29;;;;;;;8.77;7.90;;;10.40;99.90;;;;;;5054836;28;20289;-85
2022/04/24 04:00:57;;;;;;;7.70;6.95;;;10.40;99.90;;;;;;5054311;28;20206;-85
2022/04/24 04:03:26;;;;;;;9.20;7.22;;;10.30;99.90;;;;;;5054903;28;20229;-85
2022/04/24 04:05:55;;;;;;;7.63;6.85;;;10.30;99.90;;;;;;5054555;28;20206;-85
2022/04/24 04:08:23;;;;;;;8.00;7.07;;;10.30;99.90;;;;;;5055050;28;20216;-85
2022/04/24 04:10:51;;;;;;;9.23;7.72;;;10.30;99.90;;;;;;5054277;28;20284;-85
2022/04/24 04:13:21;;;;;;;8.68;7.78;;;10.30;99.90;;;;;;5054756;28;20266;-85
2022/04/24 04:15:50;;;;;;;8.98;8.07;;;10.30;99.90;;;;;;5054464;28;20265;-85
2022/04/24 04:18:18;;;;;;;7.78;7.07;;;10.30;99.90;;;;;;5054367;28;20206;-85
2022/04/24 04:20:47;;;;;;;8.70;6.72;;;10.30;99.90;;;;;;5053838;28;20217;-85
2022/04/24 04:23:16;;;;;;;7.72;7.03;;;10.30;99.90;;;;;;5053888;28;20244;-84
2022/04/24 04:25:44;;;;;;;8.63;7.75;;;10.30;99.90;;;;;;5054237;28;20234;-84
2022/04/24 04:28:13;;;;;;;8.55;7.55;;;10.30;99.90;;;;;;5054594;28;20217;-85
2022/04/24 04:30:42;;;;;;;8.88;7.97;;;10.30;99.90;;;;;;5053909;28;20250;-85
2022/04/24 04:33:11;;;;;;;8.10;7.20;;;10.30;99.90;;;;;;5054212;28;20202;-85
2022/04/24 04:35:39;;;;;;;7.47;6.72;;;10.30;99.90;;;;;;5054010;28;20198;-85
2022/04/24 04:38:07;;;;;;;7.40;6.72;;;10.30;99.90;;;;;;5054119;28;20233;-85
2022/04/24 04:40:36;;;;;;;6.85;6.25;;;10.30;99.90;;;;;;5053613;28;20238;-85
2022/04/24 04:43:04;;;;;;;7.03;6.43;;;10.30;99.90;;;;;;5053772;28;20227;-85
2022/04/24 04:45:33;;;;;;;7.85;7.05;;;10.40;99.90;;;;;;5053843;28;20311;-85
2022/04/24 04:48:02;;;;;;;8.77;7.75;;;10.40;99.90;;;;;;5054253;28;20281;-85
2022/04/24 04:50:31;;;;;;;7.78;7.05;;;10.40;99.90;;;;;;5053490;28;20316;-85
2022/04/24 04:52:59;;;;;;;8.27;7.57;;;10.40;99.90;;;;;;5053948;28;20226;-85
2022/04/24 04:55:27;;;;;;;8.18;7.38;;;10.50;99.90;;;;;;5053042;28;20205;-85
2022/04/24 04:57:57;;;;;;;8.95;8.05;;;10.50;99.90;;;;;;5053698;28;20201;-85
2022/04/24 05:00:26;;;;;;;8.63;7.78;;;10.50;99.90;;;;;;5053878;28;20202;-85
2022/04/24 05:02:54;;;;;;;13.25;8.50;;;10.60;99.90;;;;;;5053434;28;20275;-85
2022/04/24 05:05:24;;;;;;;9.02;8.23;;;10.60;99.90;;;;;;5053649;28;20197;-85
2022/04/24 05:07:52;;;;;;;12.68;8.63;;;10.60;99.90;;;;;;5053915;28;20233;-85
2022/04/24 05:10:21;;;;;;;11.23;8.50;;;10.80;99.90;;;;;;5053112;28;20217;-85
2022/04/24 05:12:49;;;;;;;8.65;7.88;;;10.90;99.90;;;;;;5053455;28;20332;-85
2022/04/24 05:15:19;;;;;;;9.75;7.65;;;11.00;99.90;;;;;;5053415;28;20213;-84
2022/04/24 05:17:48;;;;;;;8.32;7.53;;;11.10;99.90;;;;;;5053135;28;20264;-85
2022/04/24 05:20:16;;;;;;;8.20;7.50;;;11.30;99.90;;;;;;5052722;28;20213;-84
2022/04/24 05:22:46;;;;;;;7.85;7.13;;;11.40;99.90;;;;;;5053230;28;20378;-84
2022/04/24 05:25:14;;;;;;;8.75;7.93;;;11.50;99.90;;;;;;5053557;28;20284;-85
2022/04/24 05:27:44;;;;;;;8.40;7.55;;;11.60;99.90;;;;;;5053184;28;20231;-84
2022/04/24 05:30:13;;;;;;;7.07;6.38;;;11.70;99.90;;;;;;5053010;28;20209;-86
2022/04/24 05:32:43;;;;;;;9.20;7.47;;;11.70;99.90;;;;;;5053097;28;20305;-86
2022/04/24 05:35:11;;;;;;;7.30;5.82;;;11.70;99.90;;;;;;5053206;28;20288;-84
2022/04/24 05:37:40;;;;;;;7.10;6.40;;;11.80;99.90;;;;;;5053006;28;20236;-86
2022/04/24 05:40:12;;;;;;;8.13;7.22;;;11.80;99.90;;;;;;5052479;28;20240;-86
2022/04/24 05:42:46;;;;;;;7.35;6.75;;;11.80;99.90;;;;;;5052664;28;20247;-86
2022/04/24 05:45:15;;;;;;;6.32;5.82;;;11.80;99.90;;;;;;5052823;28;20264;-85
2022/04/24 05:47:44;;;;;;;7.18;6.45;;;11.90;99.90;;;;;;5052549;28;20239;-86
2022/04/24 05:50:12;;;;;;;7.28;6.57;;;11.90;99.90;;;;;;5052533;28;20293;-86
2022/04/24 05:52:41;;;;;;;6.22;5.72;;;12.00;99.90;;;;;;5052546;28;20279;-86
2022/04/24 05:55:12;;;;;;;6.15;5.55;;;12.10;99.90;;;;;;5052626;28;20198;-86
2022/04/24 05:57:40;;;;;;;6.25;5.68;;;12.30;99.90;;;;;;5052942;28;20267;-86
2022/04/24 06:00:11;;;;;;;6.78;5.40;;;12.50;99.90;;;;;;5052924;28;20237;-86
2022/04/24 06:02:39;;;;;;;6.20;5.38;;;12.70;99.90;;;;;;5053706;28;20237;-85
2022/04/24 06:05:10;;;;;;;7.13;5.22;;;12.80;99.90;;;;;;5053563;28;20267;-85
2022/04/24 06:07:39;;;;;;;6.65;5.72;;;13.00;99.90;;;;;;5052219;28;20210;-85
2022/04/24 06:10:11;;;;;;;4.40;4.00;;;13.00;99.90;;;;;;5052795;28;20211;-86
2022/04/24 06:12:49;;;;;;;5.07;4.57;;;13.10;99.90;;;;;;5052269;28;20222;-85
2022/04/24 06:15:21;;;;;;;5.18;4.75;;;13.10;99.90;;;;;;5053445;28;20292;-85
2022/04/24 06:17:51;;;;;;;4.88;4.47;;;13.10;99.90;;;;;;5052691;28;20205;-86
2022/04/24 06:20:20;;;;;;;4.53;4.18;;;13.10;99.90;;;;;;5052027;28;20221;-86
2022/04/24 06:22:50;;;;;;;4.32;3.85;;;13.20;99.90;;;;;;5052417;28;20329;-86
2022/04/24 06:25:21;;;;;;;5.50;4.18;;;13.10;99.90;;;;;;5052586;28;20240;-86
2022/04/24 06:27:51;;;;;;;4.50;4.07;;;13.10;99.90;;;;;;5052625;28;20304;-85
2022/04/24 06:30:21;;;;;;;4.72;3.80;;;13.20;99.90;;;;;;5052543;28;20309;-86
2022/04/24 06:32:49;;;;;;;4.68;3.85;;;13.20;99.90;;;;;;5052457;28;20241;-86
2022/04/24 06:35:18;;;;;;;3.50;3.20;;;13.20;99.90;;;;;;5052322;28;20206;-85
2022/04/24 06:37:49;;;;;;;3.00;2.75;;;13.20;99.90;;;;;;5052562;28;20285;-85
2022/04/24 06:40:20;;;;;;;4.43;3.38;;;13.20;99.90;;;;;;5052027;28;20221;-85
2022/04/24 06:42:50;;;;;;;3.83;3.28;;;13.20;99.90;;;;;;5052363;28;20309;-85
2022/04/24 06:45:21;;;;;;;3.10;2.90;;;13.20;99.90;;;;;;5052281;28;20293;-85
2022/04/24 06:47:49;;;;;;;3.95;2.80;;;13.30;99.90;;;;;;5052006;28;20277;-86
2022/04/24 06:50:17;;;;;;;3.78;2.63;;;13.30;99.90;;;;;;5051571;28;20209;-85
2022/04/24 06:52:56;;;;;;;3.33;3.00;;;13.30;99.90;;;;;;5051594;28;20226;-86
2022/04/24 06:55:26;;;;;;;2.15;2.05;;;13.30;99.90;;;;;;5052401;28;20209;-85
2022/04/24 06:57:54;;;;;;;2.60;2.40;;;13.40;99.90;;;;;;5052133;28;20298;-85
2022/04/24 07:00:24;;;;;;;2.78;2.47;;;13.50;99.90;;;;;;5051987;28;20286;-85
2022/04/24 07:02:53;;;;;;;2.47;2.28;;;13.50;99.90;;;;;;5051848;28;20321;-85
2022/04/24 07:05:23;;;;;;;12.30;2.30;;;13.60;99.90;;;;;;5052052;28;20216;-85
2022/04/24 07:07:52;;;;;;;2.35;2.15;;;13.60;99.90;;;;;;5052073;28;20209;-85
2022/04/24 07:10:21;;;;;;;2.30;2.10;;;13.70;99.90;;;;;;5051864;28;20206;-85
2022/04/24 07:13:00;;;;;;;4.15;2.58;;;13.70;99.90;;;;;;5051766;28;20237;-86
2022/04/24 07:15:31;;;;;;;2.47;2.28;;;13.80;99.90;;;;;;5051823;28;20297;-86
2022/04/24 07:18:00;;;;;;;4.78;2.47;;;13.80;99.90;;;;;;5052712;28;20209;-85
2022/04/24 07:20:30;;;;;;;1.85;1.75;;;13.80;99.90;;;;;;5054908;28;20218;-86
2022/04/24 07:23:00;;;;;;;3.17;2.53;;;13.90;99.90;;;;;;5055579;28;20308;-85
2022/04/24 07:25:30;;;;;;;2.33;2.13;;;13.90;99.90;;;;;;5055183;28;20289;-85
2022/04/24 07:28:00;;;;;;;2.17;1.83;;;13.90;99.90;;;;;;5055362;28;20261;-85
2022/04/24 07:30:28;;;;;;;1.80;1.70;;;13.90;99.90;;;;;;5055137;28;20277;-85
2022/04/24 07:32:58;;;;;;;1.98;1.83;;;13.90;99.90;;;;;;5054836;28;20236;-85
2022/04/24 07:35:27;;;;;;;1.90;1.80;;;13.90;99.90;;;;;;5055648;28;20284;-85
2022/04/24 07:37:56;;;;;;;1.80;1.70;;;14.00;99.90;;;;;;5055315;28;20277;-85
2022/04/24 07:40:26;;;;;;;2.47;1.55;;;14.00;99.90;;;;;;5054829;28;20273;-85
2022/04/24 07:42:57;;;;;;;1.70;1.60;;;14.10;99.90;;;;;;5055050;28;20226;-85
2022/04/24 07:45:29;;;;;;;1.98;1.70;;;14.10;99.90;;;;;;5055276;28;20210;-86
2022/04/24 07:47:59;;;;;;;1.92;1.70;;;14.20;99.90;;;;;;5055316;28;20257;-86
2022/04/24 07:50:29;;;;;;;10.05;2.13;;;14.30;99.90;;;;;;5054713;28;20237;-86
2022/04/24 07:52:58;;;;;;;1.90;1.70;;;14.30;99.90;;;;;;5054559;28;20295;-85
2022/04/24 07:55:26;;;;;;;2.20;1.65;;;14.30;99.90;;;;;;5054985;28;20297;-86
2022/04/24 07:57:57;;;;;;;1.70;1.60;;;14.40;99.90;;;;;;5054811;28;20284;-86
2022/04/24 08:00:28;;;;;;;1.60;1.50;;;14.60;99.90;;;;;;5054561;28;20210;-86
2022/04/24 08:02:58;;;;;;;5.47;2.47;;;14.70;99.90;;;;;;5054992;28;20232;-86
2022/04/24 08:05:28;;;;;;;20.50;2.38;;;14.70;99.90;;;;;;5054460;28;20202;-86
2022/04/24 08:07:58;;;;;;;1.83;1.70;;;14.80;99.90;;;;;;5054816;28;20210;-86
2022/04/24 08:10:29;;;;;;;2.15;1.90;;;14.80;99.90;;;;;;5054489;28;20293;-86
2022/04/24 08:12:58;;;;;;;3.15;1.88;;;14.80;99.90;;;;;;5054506;28;20253;-86
2022/04/24 08:15:28;;;;;;;1.40;1.30;;;14.80;99.90;;;;;;5054545;28;20236;-86
2022/04/24 08:17:56;;;;;;;2.17;1.95;;;14.90;99.90;;;;;;5054437;28;20218;-86
2022/04/24 08:20:25;;;;;;;1.70;1.40;;;15.00;99.90;;;;;;5054392;28;20217;-86
2022/04/24 08:22:55;;;;;;;1.60;1.50;;;15.00;99.90;;;;;;5054295;28;20316;-86
2022/04/24 08:25:25;;;;;;;2.08;1.88;;;15.00;99.90;;;;;;5054534;28;20293;-86
2022/04/24 08:27:55;;;;;;;1.65;1.55;;;15.00;99.90;;;;;;5054284;28;20236;-85
2022/04/24 08:30:24;;;;;;;4.32;1.83;;;15.00;99.90;;;;;;5053164;28;20202;-86
2022/04/24 08:32:54;;;;;;;2.10;1.90;;;15.00;99.90;;;;;;5053938;28;20230;-85
2022/04/24 08:35:27;;;;;;;1.75;1.65;;;15.10;99.90;;;;;;5054288;28;20208;-86
2022/04/24 08:37:55;;;;;;;3.60;2.00;;;15.20;99.90;;;;;;5054208;28;20292;-85
2022/04/24 08:40:24;;;;;;;2.05;1.70;;;15.20;99.90;;;;;;5053954;28;20236;-85
2022/04/24 08:42:54;;;;;;;2.03;1.40;;;15.30;99.90;;;;;;5053812;28;20242;-86
2022/04/24 08:45:26;;;;;;;4.78;2.38;;;15.30;99.90;;;;;;5054189;28;20214;-85
2022/04/24 08:47:58;;;;;;;1.85;1.60;;;15.30;99.90;;;;;;5053845;28;20306;-86
2022/04/24 08:50:29;;;;;;;22.08;2.20;;;15.30;99.90;;;;;;5053589;28;20209;-86
2022/04/24 08:52:58;;;;;;;8.00;2.35;;;15.30;99.90;;;;;;5053411;28;20250;-86
2022/04/24 08:55:28;;;;;;;2.42;1.80;;;15.40;99.90;;;;;;5053889;28;20248;-84
2022/04/24 08:57:56;;;;;;;1.58;1.48;;;15.40;99.90;;;;;;5053407;28;20256;-84
2022/04/24 09:00:27;;;;;;;2.38;1.85;;;15.50;99.90;;;;;;5053481;28;20210;-84
2022/04/24 09:02:58;;;;;;;1.13;1.13;;;15.50;99.90;;;;;;5053534;28;20272;-84
2022/04/24 09:05:30;;;;;;;3.38;1.73;;;15.50;99.90;;;;;;5053482;28;20206;-84
2022/04/24 09:08:06;;;;;;;2.40;1.85;;;15.60;99.90;;;;;;5053454;28;20206;-84
2022/04/24 09:10:57;;;;;;;2.40;1.63;;;15.60;99.90;;;;;;5052854;28;20213;-84
2022/04/24 09:14:14;;;;;;;2.17;1.70;;;15.60;99.90;;;;;;5053304;28;20300;-84
2022/04/24 09:16:33;;;;;;;6.45;2.28;;;15.60;99.90;;;;;;5053305;28;20225;-84
2022/04/24 09:19:03;;;;;;;2.15;1.77;;;15.70;99.90;;;;;;5053645;28;20229;-84
2022/04/24 09:21:32;;;;;;;2.03;1.85;;;15.70;99.90;;;;;;5052887;28;20316;-83
2022/04/24 09:24:01;;;;;;;2.67;1.92;;;15.80;99.90;;;;;;5052970;28;20240;-84
2022/04/24 09:26:29;;;;;;;2.22;1.75;;;15.80;99.90;;;;;;5053025;28;20240;-84
2022/04/24 09:29:14;;;;;;;2.70;1.65;;;15.90;99.90;;;;;;5052884;28;20202;-84
2022/04/24 09:31:47;;;;;;;3.05;1.85;;;15.80;99.90;;;;;;5053210;28;20313;-83
2022/04/24 09:34:19;;;;;;;2.55;1.90;;;15.90;99.90;;;;;;5053282;28;20222;-83
2022/04/24 09:36:59;;;;;;;3.17;1.85;;;15.90;99.90;;;;;;5052938;28;20261;-84
2022/04/24 09:39:28;;;;;;;2.53;1.88;;;16.00;99.90;;;;;;5053088;28;20217;-84
2022/04/24 09:42:02;;;;;;;2.65;2.10;;;16.00;99.90;;;;;;5052391;28;20304;-84
2022/04/24 09:44:38;;;;;;;1.60;1.50;;;16.10;99.90;;;;;;5053020;28;20197;-83
2022/04/24 09:47:27;;;;;;;3.15;1.83;;;16.10;99.90;;;;;;5052739;28;20280;-84
2022/04/24 09:50:00;;;;;;;2.60;1.90;;;16.20;99.90;;;;;;5052824;28;20229;-84
2022/04/24 09:52:31;;;;;;;2.15;1.77;;;16.20;99.90;;;;;;5052232;28;20309;-84
2022/04/24 09:55:02;;;;;;;5.55;2.30;;;16.20;99.90;;;;;;5052568;28;20229;-84
2022/04/24 09:57:31;;;;;;;1.88;1.50;;;16.20;99.90;;;;;;5053057;28;20300;-84
2022/04/24 10:00:00;;;;;;;12.65;1.90;;;16.30;99.90;;;;;;5053058;28;20269;-84
2022/04/24 10:02:31;;;;;;;14.75;1.92;;;16.30;99.90;;;;;;5052218;28;20308;-84
2022/04/24 10:05:01;;;;;;;1.88;1.50;;;16.30;99.90;;;;;;5052424;28;20228;-84
2022/04/24 10:07:30;;;;;;;2.03;1.73;;;16.30;99.90;;;;;;5052743;28;20202;-84
2022/04/24 10:09:59;;;;;;;1.60;1.48;;;16.40;99.90;;;;;;5052565;28;20248;-84
2022/04/24 10:12:28;;;;;;;2.28;1.83;;;16.50;99.90;;;;;;5052503;28;20240;-84
2022/04/24 10:15:01;;;;;;;8.57;1.92;;;16.40;99.90;;;;;;5052072;28;20256;-84
2022/04/24 10:17:43;;;;;;;1.98;1.73;;;16.50;99.90;;;;;;5052558;28;20289;-84
2022/04/24 10:20:47;;;;;;;2.10;1.52;;;16.50;99.90;;;;;;5052210;28;20209;-84
2022/04/24 10:23:16;;;;;;;3.88;1.75;;;16.50;99.90;;;;;;5052277;28;20263;-84
2022/04/24 10:25:44;;;;;;;2.45;1.90;;;16.50;99.90;;;;;;5052553;28;20268;-84
2022/04/24 10:28:16;;;;;;;1.98;1.70;;;16.50;99.90;;;;;;5052179;28;20209;-83
2022/04/24 10:30:47;;;;;;;2.90;1.65;;;16.50;99.90;;;;;;5051890;28;20210;-84
2022/04/24 10:33:18;;;;;;;2.63;1.95;;;16.50;99.90;;;;;;5052231;28;20260;-84
2022/04/24 10:35:52;;;;;;;2.05;1.83;;;16.50;99.90;;;;;;5052417;28;20221;-84
2022/04/24 10:38:23;;;;;;;4.85;2.00;;;16.60;99.90;;;;;;5052420;28;20263;-84
2022/04/24 10:40:59;;;;;;;2.40;1.70;;;16.70;99.90;;;;;;5052109;28;20293;-84
2022/04/24 10:43:37;;;;;;;2.00;1.85;;;16.70;99.90;;;;;;5052332;28;20288;-83
2022/04/24 10:46:17;;;;;;;3.08;2.25;;;16.80;99.90;;;;;;5052130;28;20308;-84
2022/04/24 10:48:46;;;;;;;9.13;2.00;;;16.90;99.90;;;;;;5052265;28;20220;-84
2022/04/24 10:51:28;;;;;;;1.70;1.48;;;17.00;99.90;;;;;;5052234;28;20256;-83
2022/04/24 10:53:58;;;;;;;1.50;1.40;;;17.00;99.90;;;;;;5054440;28;20217;-84
2022/04/24 10:56:28;;;;;;;1.67;1.45;;;17.10;99.90;;;;;;5055999;28;20205;-84
2022/04/24 10:59:07;;;;;;;3.08;1.50;;;17.20;99.90;;;;;;5055629;28;20257;-84
2022/04/24 11:01:36;;;;;;;2.20;1.80;;;17.50;99.90;;;;;;5055578;28;20233;-83
2022/04/24 11:04:07;;;;;;;2.88;2.00;;;17.90;99.90;;;;;;5055928;28;20202;-84
2022/04/24 11:06:37;;;;;;;1.75;1.45;;;18.50;99.90;;;;;;5055861;28;20277;-84
2022/04/24 11:09:09;;;;;;;1.90;1.27;;;19.10;99.90;;;;;;5055817;28;20236;-84
2022/04/24 11:11:46;;;;;;;9.18;1.60;;;19.60;99.90;;;;;;5055310;28;20304;-84
2022/04/24 11:14:19;;;;;;;1.33;1.23;;;19.80;99.90;;;;;;5055437;28;20305;-84
2022/04/24 11:16:52;;;;;;;1.45;1.33;;;19.80;99.90;;;;;;5055810;28;20228;-84
2022/04/24 11:19:25;;;;;;;2.28;1.70;;;19.70;99.90;;;;;;5055498;28;20225;-84
2022/04/24 11:21:59;;;;;;;1.33;1.30;;;19.80;99.90;;;;;;5054912;28;20241;-84
2022/04/24 11:24:29;;;;;;;1.98;1.48;;;20.40;99.90;;;;;;5055325;28;20211;-84
2022/04/24 11:27:01;;;;;;;1.35;1.25;;;21.00;99.70;;;;;;5055145;28;20257;-85
2022/04/24 11:29:30;;;;;;;1.25;1.15;;;21.80;96.50;;;;;;5055490;28;20289;-84
2022/04/24 11:31:58;;;;;;;2.00;1.40;;;22.30;95.60;;;;;;5055002;28;20304;-84
2022/04/24 11:34:26;;;;;;;1.90;1.30;;;22.40;94.70;;;;;;5055290;28;20229;-85
2022/04/24 11:37:00;;;;;;;2.55;1.55;;;22.80;91.50;;;;;;5055270;28;20292;-84
2022/04/24 11:39:29;;;;;;;1.92;1.70;;;23.40;92.20;;;;;;5055096;28;20206;-84
2022/04/24 11:41:58;;;;;;;1.30;1.20;;;24.10;86.40;;;;;;5055130;28;20281;-84
2022/04/24 11:50:14;;;;;;;1.10;1.08;;;24.00;69.60;;;;;;5054681;28;20213;-85
2022/04/24 11:53:04;;;;;;;1.40;1.10;;;23.20;72.20;;;;;;5054216;28;20222;-85
2022/04/24 11:58:15;;;;;;;1.58;1.20;;;21.90;73.60;;;;;;5053928;28;20212;-84
2022/04/24 12:00:45;;;;;;;4.30;2.97;;;21.30;72.80;;;;;;5054549;28;20292;-84
2022/04/24 12:03:14;;;;;;;3.80;3.50;;;20.20;90.50;;;;;;5054550;28;20241;-84
2022/04/24 12:05:43;;;;;;;5.25;4.45;;;19.10;98.90;;;;;;5054670;28;20198;-84
2022/04/24 12:08:13;;;;;;;4.80;4.32;;;18.50;99.90;;;;;;5054544;28;20206;-83
2022/04/24 12:10:45;;;;;;;5.72;4.93;;;17.80;99.90;;;;;;5054693;28;20205;-83
2022/04/24 12:13:15;;;;;;;5.47;4.97;;;17.10;99.90;;;;;;5054583;28;20206;-84
2022/04/24 12:15:51;;;;;;;5.35;4.88;;;17.00;99.90;;;;;;5054410;28;20213;-84
2022/04/24 12:18:24;;;;;;;3.90;3.50;;;17.40;99.90;;;;;;5054422;28;20280;-86
2022/04/24 12:20:53;;;;;;;7.57;3.80;;;17.40;99.90;;;;;;5054067;28;20265;-86
2022/04/24 12:23:23;;;;;;;2.90;2.70;;;18.10;99.90;;;;;;5054176;28;20210;-86
2022/04/24 12:25:53;;;;;;;3.65;3.35;;;18.60;99.90;;;;;;5054558;28;20201;-85
2022/04/24 12:28:33;;;;;;;3.83;3.42;;;18.80;99.90;;;;;;5054572;28;20244;-85
2022/04/24 12:31:03;;;;;;;2.83;2.47;;;18.90;99.90;;;;;;5054041;28;20294;-85
2022/04/24 12:33:32;;;;;;;2.55;2.35;;;19.10;99.90;;;;;;5054237;28;20225;-85
2022/04/24 12:36:13;;;;;;;1.77;1.67;;;19.80;99.90;;;;;;5054020;28;20229;-84
2022/04/24 12:38:54;;;;;;;1.50;1.40;;;20.40;99.90;;;;;;5054279;28;20205;-85
2022/04/24 12:41:23;;;;;;;1.60;1.50;;;20.50;99.90;;;;;;5053894;28;20225;-85
2022/04/24 12:43:52;;;;;;;4.03;2.20;;;20.80;99.90;;;;;;5053976;28;20209;-86
2022/04/24 12:46:21;;;;;;;1.73;1.63;;;20.30;98.20;;;;;;5053883;28;20221;-84
2022/04/24 12:48:51;;;;;;;1.48;1.38;;;20.50;99.60;;;;;;5053959;28;20213;-84
2022/04/24 12:51:23;;;;;;;1.73;1.63;;;20.70;98.80;;;;;;5053706;28;20225;-83
2022/04/24 12:53:54;;;;;;;1.40;1.30;;;20.90;98.60;;;;;;5053979;28;20219;-83
2022/04/24 12:56:23;;;;;;;1.80;1.70;;;21.10;98.70;;;;;;5053719;28;20218;-84
2022/04/24 12:58:52;;;;;;;2.25;2.15;;;21.30;97.50;;;;;;5053366;28;20269;-83
2022/04/24 13:01:21;;;;;;;2.53;2.35;;;21.10;97.40;;;;;;5053371;28;20309;-83
2022/04/24 13:03:49;;;;;;;2.13;2.03;;;21.00;97.20;;;;;;5053601;28;20225;-83
2022/04/24 13:06:19;;;;;;;4.45;2.60;;;20.80;96.20;;;;;;5053697;28;20216;-84